WARR/SUB METAR and TAF weather

Enter ICAO airport designator
Station Type Date Time Source
WARR METAR 2021/01/20 22:00 UTC NOAA

WARR 202200Z 28007KT 5000 HZ FEW020 25/24 Q1008 NOSIG


Station Type Date Time Source
WARR Decoded METAR 2021/01/20 22:00 UTC NOAA

Station name not available
Jan 20, 2021 - 05:00 PM EST / 2021.01.20 2200 UTC
Wind: from the W (280 degrees) at 8 MPH (7 KT):0
Visibility: 3 mile(s):0
Sky conditions: mostly clear
Weather: haze
Temperature: 77 F (25 C)
Dew Point: 75 F (24 C)
Relative Humidity: 94%
Pressure (altimeter): 29.77 in. Hg (1008 hPa)
ob: WARR 202200Z 28007KT 5000 HZ FEW020 25/24 Q1008 NOSIG
cycle: 22

Station Type Date Time Source
WARR TAF 2021/01/20 18:09 UTC NOAA

TAF WARR 201700Z 2018/2118 26005KT 4000 HZ FEW020
BECMG 2100/2102 28010KT 9999 NSW SCT020
TEMPO 2108/2112 16015KT 3000 TSRA BKN018CB
TEMPO 2112/2115 5000 -RA SCT018CB

Example: see airport list